sensor_id;sensor_type;location;lat;lon;timestamp;P1;durP1;ratioP1;P2;durP2;ratioP2
13483;SDS011;6814;57.786;12.080;2023-04-28T00:00:59;12.27;;;3.00;;
13483;SDS011;6814;57.786;12.080;2023-04-28T00:03:26;11.27;;;3.70;;
13483;SDS011;6814;57.786;12.080;2023-04-28T00:05:53;11.17;;;3.00;;
13483;SDS011;6814;57.786;12.080;2023-04-28T00:08:20;10.50;;;3.20;;
13483;SDS011;6814;57.786;12.080;2023-04-28T00:10:47;8.37;;;2.70;;
13483;SDS011;6814;57.786;12.080;2023-04-28T00:13:14;8.23;;;2.47;;
13483;SDS011;6814;57.786;12.080;2023-04-28T00:15:40;8.53;;;2.80;;
13483;SDS011;6814;57.786;12.080;2023-04-28T00:18:08;7.00;;;2.80;;
13483;SDS011;6814;57.786;12.080;2023-04-28T00:20:34;8.47;;;2.93;;
13483;SDS011;6814;57.786;12.080;2023-04-28T00:23:01;7.50;;;2.50;;
13483;SDS011;6814;57.786;12.080;2023-04-28T00:25:28;8.03;;;2.97;;
13483;SDS011;6814;57.786;12.080;2023-04-28T00:27:55;11.07;;;3.30;;
13483;SDS011;6814;57.786;12.080;2023-04-28T00:30:22;11.00;;;2.53;;
13483;SDS011;6814;57.786;12.080;2023-04-28T00:32:49;9.57;;;3.37;;
13483;SDS011;6814;57.786;12.080;2023-04-28T00:35:18;14.63;;;2.93;;
13483;SDS011;6814;57.786;12.080;2023-04-28T00:37:45;10.90;;;2.93;;
13483;SDS011;6814;57.786;12.080;2023-04-28T00:40:11;10.57;;;3.20;;
13483;SDS011;6814;57.786;12.080;2023-04-28T00:42:38;9.63;;;2.70;;
13483;SDS011;6814;57.786;12.080;2023-04-28T00:45:05;11.73;;;3.07;;
13483;SDS011;6814;57.786;12.080;2023-04-28T00:47:32;8.37;;;2.97;;
13483;SDS011;6814;57.786;12.080;2023-04-28T00:49:59;9.70;;;3.17;;
13483;SDS011;6814;57.786;12.080;2023-04-28T00:52:27;10.30;;;2.50;;
13483;SDS011;6814;57.786;12.080;2023-04-28T00:54:53;8.67;;;2.50;;
13483;SDS011;6814;57.786;12.080;2023-04-28T00:57:20;9.40;;;3.20;;
13483;SDS011;6814;57.786;12.080;2023-04-28T00:59:46;8.63;;;2.20;;
13483;SDS011;6814;57.786;12.080;2023-04-28T01:02:13;14.33;;;3.30;;
13483;SDS011;6814;57.786;12.080;2023-04-28T01:04:42;9.27;;;3.00;;
13483;SDS011;6814;57.786;12.080;2023-04-28T01:07:08;7.00;;;3.07;;
13483;SDS011;6814;57.786;12.080;2023-04-28T01:09:37;7.10;;;2.67;;
13483;SDS011;6814;57.786;12.080;2023-04-28T01:12:03;7.27;;;2.50;;
13483;SDS011;6814;57.786;12.080;2023-04-28T01:14:30;8.00;;;2.77;;
13483;SDS011;6814;57.786;12.080;2023-04-28T01:16:57;10.30;;;3.30;;
13483;SDS011;6814;57.786;12.080;2023-04-28T01:19:24;13.23;;;3.27;;
13483;SDS011;6814;57.786;12.080;2023-04-28T01:21:51;12.07;;;2.90;;
13483;SDS011;6814;57.786;12.080;2023-04-28T01:24:19;16.00;;;3.13;;
13483;SDS011;6814;57.786;12.080;2023-04-28T01:26:46;6.00;;;2.63;;
13483;SDS011;6814;57.786;12.080;2023-04-28T01:29:12;7.50;;;2.47;;
13483;SDS011;6814;57.786;12.080;2023-04-28T01:31:39;4.23;;;2.97;;
13483;SDS011;6814;57.786;12.080;2023-04-28T01:34:05;11.63;;;3.40;;
13483;SDS011;6814;57.786;12.080;2023-04-28T01:36:31;11.10;;;3.43;;
13483;SDS011;6814;57.786;12.080;2023-04-28T01:38:58;14.27;;;3.50;;
13483;SDS011;6814;57.786;12.080;2023-04-28T01:41:26;10.87;;;3.50;;
13483;SDS011;6814;57.786;12.080;2023-04-28T01:43:52;11.33;;;3.27;;
13483;SDS011;6814;57.786;12.080;2023-04-28T01:46:19;10.50;;;3.23;;
13483;SDS011;6814;57.786;12.080;2023-04-28T01:48:45;13.23;;;3.47;;
13483;SDS011;6814;57.786;12.080;2023-04-28T01:51:12;9.37;;;3.00;;
13483;SDS011;6814;57.786;12.080;2023-04-28T01:53:39;8.53;;;3.63;;
13483;SDS011;6814;57.786;12.080;2023-04-28T01:56:05;11.87;;;3.93;;
13483;SDS011;6814;57.786;12.080;2023-04-28T01:58:33;7.67;;;3.37;;
13483;SDS011;6814;57.786;12.080;2023-04-28T02:01:00;10.27;;;3.50;;
13483;SDS011;6814;57.786;12.080;2023-04-28T02:03:26;8.70;;;3.73;;
13483;SDS011;6814;57.786;12.080;2023-04-28T02:05:53;11.80;;;4.50;;
13483;SDS011;6814;57.786;12.080;2023-04-28T02:08:19;9.40;;;3.20;;
13483;SDS011;6814;57.786;12.080;2023-04-28T02:10:46;6.77;;;3.37;;
13483;SDS011;6814;57.786;12.080;2023-04-28T02:13:12;13.60;;;3.97;;
13483;SDS011;6814;57.786;12.080;2023-04-28T02:15:42;7.10;;;3.10;;
13483;SDS011;6814;57.786;12.080;2023-04-28T02:18:09;9.03;;;4.00;;
13483;SDS011;6814;57.786;12.080;2023-04-28T02:20:35;10.50;;;3.50;;
13483;SDS011;6814;57.786;12.080;2023-04-28T02:23:02;11.23;;;3.40;;
13483;SDS011;6814;57.786;12.080;2023-04-28T02:25:28;10.03;;;3.53;;
13483;SDS011;6814;57.786;12.080;2023-04-28T02:27:54;12.33;;;3.23;;
13483;SDS011;6814;57.786;12.080;2023-04-28T02:30:21;7.33;;;3.43;;
13483;SDS011;6814;57.786;12.080;2023-04-28T02:32:49;5.33;;;3.20;;
13483;SDS011;6814;57.786;12.080;2023-04-28T02:35:15;6.30;;;3.43;;
13483;SDS011;6814;57.786;12.080;2023-04-28T02:37:42;10.83;;;3.63;;
13483;SDS011;6814;57.786;12.080;2023-04-28T02:40:08;8.97;;;3.83;;
13483;SDS011;6814;57.786;12.080;2023-04-28T02:42:35;11.23;;;3.57;;
13483;SDS011;6814;57.786;12.080;2023-04-28T02:45:01;10.63;;;3.27;;
13483;SDS011;6814;57.786;12.080;2023-04-28T02:47:28;8.07;;;3.47;;
13483;SDS011;6814;57.786;12.080;2023-04-28T02:49:56;8.03;;;3.33;;
13483;SDS011;6814;57.786;12.080;2023-04-28T02:52:23;7.83;;;3.00;;
13483;SDS011;6814;57.786;12.080;2023-04-28T02:54:49;9.03;;;3.20;;
13483;SDS011;6814;57.786;12.080;2023-04-28T02:57:18;9.73;;;3.33;;
13483;SDS011;6814;57.786;12.080;2023-04-28T02:59:45;7.63;;;3.63;;
13483;SDS011;6814;57.786;12.080;2023-04-28T03:02:11;11.67;;;3.77;;
13483;SDS011;6814;57.786;12.080;2023-04-28T03:04:38;10.20;;;2.97;;
13483;SDS011;6814;57.786;12.080;2023-04-28T03:07:05;11.37;;;3.33;;
13483;SDS011;6814;57.786;12.080;2023-04-28T03:09:32;7.63;;;2.87;;
13483;SDS011;6814;57.786;12.080;2023-04-28T03:11:58;9.30;;;3.60;;
13483;SDS011;6814;57.786;12.080;2023-04-28T03:14:26;6.73;;;3.17;;
13483;SDS011;6814;57.786;12.080;2023-04-28T03:16:53;8.83;;;3.47;;
13483;SDS011;6814;57.786;12.080;2023-04-28T03:19:19;12.70;;;3.57;;
13483;SDS011;6814;57.786;12.080;2023-04-28T03:21:46;10.53;;;2.97;;
13483;SDS011;6814;57.786;12.080;2023-04-28T03:24:14;9.90;;;3.10;;
13483;SDS011;6814;57.786;12.080;2023-04-28T03:26:40;12.17;;;3.73;;
13483;SDS011;6814;57.786;12.080;2023-04-28T03:29:07;10.27;;;3.23;;
13483;SDS011;6814;57.786;12.080;2023-04-28T03:31:33;4.57;;;2.80;;
13483;SDS011;6814;57.786;12.080;2023-04-28T03:33:59;11.27;;;3.27;;
13483;SDS011;6814;57.786;12.080;2023-04-28T03:36:27;6.70;;;3.27;;
13483;SDS011;6814;57.786;12.080;2023-04-28T03:38:53;10.17;;;4.80;;
13483;SDS011;6814;57.786;12.080;2023-04-28T03:41:21;8.97;;;4.00;;
13483;SDS011;6814;57.786;12.080;2023-04-28T03:43:48;9.73;;;4.00;;
13483;SDS011;6814;57.786;12.080;2023-04-28T03:46:15;9.73;;;3.90;;
13483;SDS011;6814;57.786;12.080;2023-04-28T03:48:42;12.40;;;4.23;;
13483;SDS011;6814;57.786;12.080;2023-04-28T03:51:10;14.30;;;4.60;;
13483;SDS011;6814;57.786;12.080;2023-04-28T03:53:36;7.80;;;3.80;;
13483;SDS011;6814;57.786;12.080;2023-04-28T03:56:03;9.77;;;4.23;;
13483;SDS011;6814;57.786;12.080;2023-04-28T03:58:31;9.87;;;4.03;;
13483;SDS011;6814;57.786;12.080;2023-04-28T04:00:57;13.47;;;4.73;;
13483;SDS011;6814;57.786;12.080;2023-04-28T04:03:25;10.50;;;4.77;;
13483;SDS011;6814;57.786;12.080;2023-04-28T04:05:51;13.77;;;4.43;;
13483;SDS011;6814;57.786;12.080;2023-04-28T04:08:19;11.03;;;4.17;;
13483;SDS011;6814;57.786;12.080;2023-04-28T04:10:46;13.03;;;4.43;;
13483;SDS011;6814;57.786;12.080;2023-04-28T04:13:12;12.17;;;5.17;;
13483;SDS011;6814;57.786;12.080;2023-04-28T04:15:40;8.83;;;4.70;;
13483;SDS011;6814;57.786;12.080;2023-04-28T04:18:06;11.97;;;4.57;;
13483;SDS011;6814;57.786;12.080;2023-04-28T04:20:33;8.83;;;3.83;;
13483;SDS011;6814;57.786;12.080;2023-04-28T04:22:59;13.70;;;4.00;;
13483;SDS011;6814;57.786;12.080;2023-04-28T04:25:26;10.67;;;4.20;;
13483;SDS011;6814;57.786;12.080;2023-04-28T04:27:52;8.37;;;3.70;;
13483;SDS011;6814;57.786;12.080;2023-04-28T04:30:18;8.97;;;4.00;;
13483;SDS011;6814;57.786;12.080;2023-04-28T04:32:46;11.07;;;3.90;;
13483;SDS011;6814;57.786;12.080;2023-04-28T04:35:13;10.07;;;4.00;;
13483;SDS011;6814;57.786;12.080;2023-04-28T04:37:39;8.10;;;3.67;;
13483;SDS011;6814;57.786;12.080;2023-04-28T04:40:06;12.43;;;4.37;;
13483;SDS011;6814;57.786;12.080;2023-04-28T04:42:32;13.43;;;4.60;;
13483;SDS011;6814;57.786;12.080;2023-04-28T04:44:59;7.67;;;4.30;;
13483;SDS011;6814;57.786;12.080;2023-04-28T04:47:25;11.77;;;4.30;;
13483;SDS011;6814;57.786;12.080;2023-04-28T04:49:53;10.17;;;4.17;;
13483;SDS011;6814;57.786;12.080;2023-04-28T04:52:20;10.17;;;4.10;;
13483;SDS011;6814;57.786;12.080;2023-04-28T04:54:46;8.33;;;4.17;;
13483;SDS011;6814;57.786;12.080;2023-04-28T04:57:13;12.67;;;4.27;;
13483;SDS011;6814;57.786;12.080;2023-04-28T04:59:39;11.67;;;3.90;;
13483;SDS011;6814;57.786;12.080;2023-04-28T05:02:06;11.47;;;5.10;;
13483;SDS011;6814;57.786;12.080;2023-04-28T05:04:32;10.20;;;4.80;;
13483;SDS011;6814;57.786;12.080;2023-04-28T05:07:00;9.97;;;4.70;;
13483;SDS011;6814;57.786;12.080;2023-04-28T05:09:26;13.27;;;4.83;;
13483;SDS011;6814;57.786;12.080;2023-04-28T05:11:53;9.20;;;4.50;;
13483;SDS011;6814;57.786;12.080;2023-04-28T05:14:23;7.73;;;4.77;;
13483;SDS011;6814;57.786;12.080;2023-04-28T05:16:50;8.23;;;4.40;;
13483;SDS011;6814;57.786;12.080;2023-04-28T05:19:18;6.70;;;3.90;;
13483;SDS011;6814;57.786;12.080;2023-04-28T05:21:45;11.10;;;4.00;;
13483;SDS011;6814;57.786;12.080;2023-04-28T05:24:14;8.23;;;3.93;;
13483;SDS011;6814;57.786;12.080;2023-04-28T05:26:40;7.47;;;3.53;;
13483;SDS011;6814;57.786;12.080;2023-04-28T05:29:09;11.30;;;4.33;;
13483;SDS011;6814;57.786;12.080;2023-04-28T05:31:35;8.07;;;4.07;;
13483;SDS011;6814;57.786;12.080;2023-04-28T05:34:02;9.73;;;4.53;;
13483;SDS011;6814;57.786;12.080;2023-04-28T05:36:31;11.57;;;4.83;;
13483;SDS011;6814;57.786;12.080;2023-04-28T05:38:58;8.10;;;4.67;;
13483;SDS011;6814;57.786;12.080;2023-04-28T05:41:26;10.70;;;4.17;;
13483;SDS011;6814;57.786;12.080;2023-04-28T05:43:53;8.93;;;4.47;;
13483;SDS011;6814;57.786;12.080;2023-04-28T05:46:19;7.17;;;3.93;;
13483;SDS011;6814;57.786;12.080;2023-04-28T05:48:45;9.57;;;4.57;;
13483;SDS011;6814;57.786;12.080;2023-04-28T05:51:12;11.37;;;4.43;;
13483;SDS011;6814;57.786;12.080;2023-04-28T05:53:38;8.37;;;4.10;;
13483;SDS011;6814;57.786;12.080;2023-04-28T05:56:05;8.03;;;3.90;;
13483;SDS011;6814;57.786;12.080;2023-04-28T05:58:33;8.27;;;4.03;;
13483;SDS011;6814;57.786;12.080;2023-04-28T06:00:59;8.17;;;3.43;;
13483;SDS011;6814;57.786;12.080;2023-04-28T06:03:26;8.30;;;3.70;;
13483;SDS011;6814;57.786;12.080;2023-04-28T06:05:52;10.20;;;4.17;;
13483;SDS011;6814;57.786;12.080;2023-04-28T06:08:19;12.33;;;3.90;;
13483;SDS011;6814;57.786;12.080;2023-04-28T06:10:45;10.20;;;3.47;;
13483;SDS011;6814;57.786;12.080;2023-04-28T06:13:11;8.57;;;3.40;;
13483;SDS011;6814;57.786;12.080;2023-04-28T06:15:39;7.63;;;3.33;;
13483;SDS011;6814;57.786;12.080;2023-04-28T06:18:06;9.53;;;3.20;;
13483;SDS011;6814;57.786;12.080;2023-04-28T06:20:33;6.67;;;3.13;;
13483;SDS011;6814;57.786;12.080;2023-04-28T06:23:00;7.17;;;3.33;;
13483;SDS011;6814;57.786;12.080;2023-04-28T06:25:27;9.43;;;3.43;;
13483;SDS011;6814;57.786;12.080;2023-04-28T06:27:53;5.63;;;2.70;;
13483;SDS011;6814;57.786;12.080;2023-04-28T06:30:21;6.83;;;3.17;;
13483;SDS011;6814;57.786;12.080;2023-04-28T06:32:49;6.33;;;2.90;;
13483;SDS011;6814;57.786;12.080;2023-04-28T06:35:16;3.60;;;2.13;;
13483;SDS011;6814;57.786;12.080;2023-04-28T06:37:42;7.67;;;2.60;;
13483;SDS011;6814;57.786;12.080;2023-04-28T06:40:09;5.17;;;2.60;;
13483;SDS011;6814;57.786;12.080;2023-04-28T06:42:36;5.13;;;2.60;;
13483;SDS011;6814;57.786;12.080;2023-04-28T06:45:02;4.30;;;2.17;;
13483;SDS011;6814;57.786;12.080;2023-04-28T06:47:29;4.90;;;2.27;;
13483;SDS011;6814;57.786;12.080;2023-04-28T06:50:00;5.37;;;2.00;;
13483;SDS011;6814;57.786;12.080;2023-04-28T06:52:26;5.53;;;2.27;;
13483;SDS011;6814;57.786;12.080;2023-04-28T06:54:53;5.33;;;1.93;;
13483;SDS011;6814;57.786;12.080;2023-04-28T06:57:20;6.13;;;1.83;;
13483;SDS011;6814;57.786;12.080;2023-04-28T06:59:46;4.30;;;2.00;;
13483;SDS011;6814;57.786;12.080;2023-04-28T07:02:16;5.60;;;2.27;;
13483;SDS011;6814;57.786;12.080;2023-04-28T07:04:42;5.00;;;1.67;;
13483;SDS011;6814;57.786;12.080;2023-04-28T07:07:10;3.97;;;1.87;;
13483;SDS011;6814;57.786;12.080;2023-04-28T07:09:37;3.17;;;1.80;;
13483;SDS011;6814;57.786;12.080;2023-04-28T07:12:04;4.17;;;1.67;;
13483;SDS011;6814;57.786;12.080;2023-04-28T07:14:31;2.57;;;1.50;;
13483;SDS011;6814;57.786;12.080;2023-04-28T07:16:58;1.80;;;0.90;;
13483;SDS011;6814;57.786;12.080;2023-04-28T07:19:26;1.90;;;1.13;;
13483;SDS011;6814;57.786;12.080;2023-04-28T07:21:52;1.93;;;0.83;;
13483;SDS011;6814;57.786;12.080;2023-04-28T07:24:20;1.47;;;1.00;;
13483;SDS011;6814;57.786;12.080;2023-04-28T07:26:48;0.87;;;0.70;;
13483;SDS011;6814;57.786;12.080;2023-04-28T07:29:15;1.07;;;0.53;;
13483;SDS011;6814;57.786;12.080;2023-04-28T07:31:42;1.57;;;0.90;;
13483;SDS011;6814;57.786;12.080;2023-04-28T07:34:08;1.67;;;1.20;;
13483;SDS011;6814;57.786;12.080;2023-04-28T07:36:35;2.63;;;1.00;;
13483;SDS011;6814;57.786;12.080;2023-04-28T07:39:01;2.27;;;0.93;;
13483;SDS011;6814;57.786;12.080;2023-04-28T07:41:34;3.73;;;1.10;;
13483;SDS011;6814;57.786;12.080;2023-04-28T07:44:01;1.00;;;0.90;;
13483;SDS011;6814;57.786;12.080;2023-04-28T07:46:29;2.40;;;1.10;;
13483;SDS011;6814;57.786;12.080;2023-04-28T07:48:55;0.93;;;0.90;;
13483;SDS011;6814;57.786;12.080;2023-04-28T07:51:22;0.70;;;0.60;;
13483;SDS011;6814;57.786;12.080;2023-04-28T07:53:48;2.37;;;0.80;;
13483;SDS011;6814;57.786;12.080;2023-04-28T07:56:30;2.43;;;0.40;;
13483;SDS011;6814;57.786;12.080;2023-04-28T07:58:56;0.37;;;0.30;;
13483;SDS011;6814;57.786;12.080;2023-04-28T08:01:23;1.33;;;0.40;;
13483;SDS011;6814;57.786;12.080;2023-04-28T08:03:49;0.43;;;0.40;;
13483;SDS011;6814;57.786;12.080;2023-04-28T08:06:16;0.33;;;0.33;;
13483;SDS011;6814;57.786;12.080;2023-04-28T08:08:43;0.60;;;0.40;;
13483;SDS011;6814;57.786;12.080;2023-04-28T08:11:09;1.23;;;0.30;;
13483;SDS011;6814;57.786;12.080;2023-04-28T08:13:37;1.67;;;0.60;;
13483;SDS011;6814;57.786;12.080;2023-04-28T08:16:04;0.83;;;0.40;;
13483;SDS011;6814;57.786;12.080;2023-04-28T08:18:30;0.30;;;0.30;;
13483;SDS011;6814;57.786;12.080;2023-04-28T08:20:57;0.30;;;0.30;;
13483;SDS011;6814;57.786;12.080;2023-04-28T08:23:23;1.27;;;0.40;;
13483;SDS011;6814;57.786;12.080;2023-04-28T08:25:52;0.97;;;0.47;;
13483;SDS011;6814;57.786;12.080;2023-04-28T08:28:18;0.83;;;0.43;;
13483;SDS011;6814;57.786;12.080;2023-04-28T08:30:46;1.43;;;0.60;;
13483;SDS011;6814;57.786;12.080;2023-04-28T08:33:13;1.10;;;0.50;;
13483;SDS011;6814;57.786;12.080;2023-04-28T08:35:39;2.37;;;0.70;;
13483;SDS011;6814;57.786;12.080;2023-04-28T08:38:06;1.00;;;0.60;;
13483;SDS011;6814;57.786;12.080;2023-04-28T08:40:37;0.60;;;0.60;;
13483;SDS011;6814;57.786;12.080;2023-04-28T08:43:04;1.57;;;0.60;;
13483;SDS011;6814;57.786;12.080;2023-04-28T08:45:31;1.80;;;0.63;;
13483;SDS011;6814;57.786;12.080;2023-04-28T08:48:05;1.17;;;0.40;;
13483;SDS011;6814;57.786;12.080;2023-04-28T08:50:35;1.33;;;0.70;;
13483;SDS011;6814;57.786;12.080;2023-04-28T08:53:03;1.40;;;0.60;;
13483;SDS011;6814;57.786;12.080;2023-04-28T08:55:29;2.33;;;0.80;;
13483;SDS011;6814;57.786;12.080;2023-04-28T08:57:56;0.57;;;0.50;;
13483;SDS011;6814;57.786;12.080;2023-04-28T09:00:23;0.77;;;0.50;;
13483;SDS011;6814;57.786;12.080;2023-04-28T09:02:50;0.50;;;0.40;;
13483;SDS011;6814;57.786;12.080;2023-04-28T09:05:17;1.60;;;0.67;;
13483;SDS011;6814;57.786;12.080;2023-04-28T09:07:44;1.30;;;0.80;;
13483;SDS011;6814;57.786;12.080;2023-04-28T09:10:15;1.27;;;0.70;;
13483;SDS011;6814;57.786;12.080;2023-04-28T09:12:42;1.33;;;0.63;;
13483;SDS011;6814;57.786;12.080;2023-04-28T09:15:08;2.10;;;0.60;;
13483;SDS011;6814;57.786;12.080;2023-04-28T09:17:45;1.20;;;0.70;;
13483;SDS011;6814;57.786;12.080;2023-04-28T09:20:19;1.03;;;0.50;;
13483;SDS011;6814;57.786;12.080;2023-04-28T09:22:46;1.20;;;0.70;;
13483;SDS011;6814;57.786;12.080;2023-04-28T09:25:13;0.90;;;0.70;;
13483;SDS011;6814;57.786;12.080;2023-04-28T09:27:40;1.37;;;0.70;;
13483;SDS011;6814;57.786;12.080;2023-04-28T09:30:08;1.23;;;0.73;;
13483;SDS011;6814;57.786;12.080;2023-04-28T09:32:35;1.00;;;0.70;;
13483;SDS011;6814;57.786;12.080;2023-04-28T09:35:03;1.50;;;0.63;;
13483;SDS011;6814;57.786;12.080;2023-04-28T09:37:33;1.80;;;0.70;;
13483;SDS011;6814;57.786;12.080;2023-04-28T09:40:04;1.10;;;0.67;;
13483;SDS011;6814;57.786;12.080;2023-04-28T09:42:32;1.83;;;0.90;;
13483;SDS011;6814;57.786;12.080;2023-04-28T09:45:00;5.67;;;0.60;;
13483;SDS011;6814;57.786;12.080;2023-04-28T09:47:28;1.33;;;0.63;;
13483;SDS011;6814;57.786;12.080;2023-04-28T09:50:00;0.23;;;0.23;;
13483;SDS011;6814;57.786;12.080;2023-04-28T09:52:29;0.93;;;0.80;;
13483;SDS011;6814;57.786;12.080;2023-04-28T09:54:57;0.50;;;0.40;;
13483;SDS011;6814;57.786;12.080;2023-04-28T09:57:26;2.13;;;0.80;;
13483;SDS011;6814;57.786;12.080;2023-04-28T09:59:56;2.10;;;0.67;;
13483;SDS011;6814;57.786;12.080;2023-04-28T10:02:23;1.50;;;0.53;;
13483;SDS011;6814;57.786;12.080;2023-04-28T10:04:50;1.13;;;0.50;;
13483;SDS011;6814;57.786;12.080;2023-04-28T10:07:17;0.53;;;0.53;;
13483;SDS011;6814;57.786;12.080;2023-04-28T10:09:45;1.13;;;0.50;;
13483;SDS011;6814;57.786;12.080;2023-04-28T10:12:16;2.10;;;0.77;;
13483;SDS011;6814;57.786;12.080;2023-04-28T10:14:43;0.50;;;0.43;;
13483;SDS011;6814;57.786;12.080;2023-04-28T10:17:20;1.07;;;0.63;;
13483;SDS011;6814;57.786;12.080;2023-04-28T10:19:53;1.90;;;0.73;;
13483;SDS011;6814;57.786;12.080;2023-04-28T10:22:24;2.27;;;0.60;;
13483;SDS011;6814;57.786;12.080;2023-04-28T10:25:01;0.50;;;0.47;;
13483;SDS011;6814;57.786;12.080;2023-04-28T10:27:35;1.27;;;0.60;;
13483;SDS011;6814;57.786;12.080;2023-04-28T10:30:08;1.00;;;0.60;;
13483;SDS011;6814;57.786;12.080;2023-04-28T10:32:35;2.10;;;0.50;;
13483;SDS011;6814;57.786;12.080;2023-04-28T10:40:34;1.83;;;0.70;;
13483;SDS011;6814;57.786;12.080;2023-04-28T10:43:02;1.33;;;0.63;;
13483;SDS011;6814;57.786;12.080;2023-04-28T10:48:14;2.10;;;0.73;;
13483;SDS011;6814;57.786;12.080;2023-04-28T10:50:54;1.47;;;0.83;;
13483;SDS011;6814;57.786;12.080;2023-04-28T10:56:10;0.77;;;0.60;;
13483;SDS011;6814;57.786;12.080;2023-04-28T10:58:47;3.17;;;0.70;;
13483;SDS011;6814;57.786;12.080;2023-04-28T11:01:24;1.37;;;0.60;;
13483;SDS011;6814;57.786;12.080;2023-04-28T11:03:50;1.30;;;0.80;;
13483;SDS011;6814;57.786;12.080;2023-04-28T11:06:18;1.70;;;0.70;;
13483;SDS011;6814;57.786;12.080;2023-04-28T11:08:46;0.60;;;0.60;;
13483;SDS011;6814;57.786;12.080;2023-04-28T11:11:14;0.60;;;0.60;;
13483;SDS011;6814;57.786;12.080;2023-04-28T11:13:42;0.93;;;0.77;;
13483;SDS011;6814;57.786;12.080;2023-04-28T11:16:11;0.50;;;0.50;;
13483;SDS011;6814;57.786;12.080;2023-04-28T11:18:47;2.03;;;0.77;;
13483;SDS011;6814;57.786;12.080;2023-04-28T11:21:14;0.60;;;0.60;;
13483;SDS011;6814;57.786;12.080;2023-04-28T11:23:40;1.37;;;0.70;;
13483;SDS011;6814;57.786;12.080;2023-04-28T11:26:07;1.70;;;0.60;;
13483;SDS011;6814;57.786;12.080;2023-04-28T11:28:34;1.33;;;0.80;;
13483;SDS011;6814;57.786;12.080;2023-04-28T11:31:12;1.53;;;0.70;;
13483;SDS011;6814;57.786;12.080;2023-04-28T11:33:43;0.97;;;0.50;;
13483;SDS011;6814;57.786;12.080;2023-04-28T11:36:20;2.57;;;0.70;;
13483;SDS011;6814;57.786;12.080;2023-04-28T11:38:47;0.77;;;0.60;;
13483;SDS011;6814;57.786;12.080;2023-04-28T11:41:14;2.33;;;0.70;;
13483;SDS011;6814;57.786;12.080;2023-04-28T11:43:41;1.07;;;0.50;;
13483;SDS011;6814;57.786;12.080;2023-04-28T11:46:08;1.33;;;0.70;;
13483;SDS011;6814;57.786;12.080;2023-04-28T11:48:36;3.50;;;0.70;;
13483;SDS011;6814;57.786;12.080;2023-04-28T11:51:03;1.07;;;0.70;;
13483;SDS011;6814;57.786;12.080;2023-04-28T11:53:41;2.60;;;0.90;;
13483;SDS011;6814;57.786;12.080;2023-04-28T11:56:08;2.90;;;0.77;;
13483;SDS011;6814;57.786;12.080;2023-04-28T11:58:36;0.90;;;0.70;;
13483;SDS011;6814;57.786;12.080;2023-04-28T12:01:06;1.37;;;0.70;;
13483;SDS011;6814;57.786;12.080;2023-04-28T12:03:32;1.40;;;0.50;;
13483;SDS011;6814;57.786;12.080;2023-04-28T12:06:00;1.23;;;0.70;;
13483;SDS011;6814;57.786;12.080;2023-04-28T12:08:27;1.23;;;0.70;;
13483;SDS011;6814;57.786;12.080;2023-04-28T12:11:06;1.30;;;0.80;;
13483;SDS011;6814;57.786;12.080;2023-04-28T12:13:32;2.97;;;0.80;;
13483;SDS011;6814;57.786;12.080;2023-04-28T12:16:00;2.43;;;0.90;;
13483;SDS011;6814;57.786;12.080;2023-04-28T12:18:27;1.07;;;0.73;;
13483;SDS011;6814;57.786;12.080;2023-04-28T12:20:54;6.47;;;0.90;;
13483;SDS011;6814;57.786;12.080;2023-04-28T12:23:29;1.10;;;0.77;;
13483;SDS011;6814;57.786;12.080;2023-04-28T12:25:56;1.67;;;0.67;;
13483;SDS011;6814;57.786;12.080;2023-04-28T12:28:23;3.93;;;0.77;;
13483;SDS011;6814;57.786;12.080;2023-04-28T12:31:01;1.53;;;0.50;;
13483;SDS011;6814;57.786;12.080;2023-04-28T12:33:28;1.43;;;0.80;;
13483;SDS011;6814;57.786;12.080;2023-04-28T12:35:55;1.33;;;0.83;;
13483;SDS011;6814;57.786;12.080;2023-04-28T12:38:22;2.13;;;0.77;;
13483;SDS011;6814;57.786;12.080;2023-04-28T12:40:50;1.97;;;0.80;;
13483;SDS011;6814;57.786;12.080;2023-04-28T12:43:17;0.83;;;0.60;;
13483;SDS011;6814;57.786;12.080;2023-04-28T12:45:45;2.40;;;0.70;;
13483;SDS011;6814;57.786;12.080;2023-04-28T12:48:11;0.70;;;0.70;;
13483;SDS011;6814;57.786;12.080;2023-04-28T12:50:38;2.13;;;0.70;;
13483;SDS011;6814;57.786;12.080;2023-04-28T12:53:07;1.90;;;0.60;;
13483;SDS011;6814;57.786;12.080;2023-04-28T12:55:35;1.20;;;0.77;;
13483;SDS011;6814;57.786;12.080;2023-04-28T12:58:04;2.47;;;1.00;;
13483;SDS011;6814;57.786;12.080;2023-04-28T13:00:30;0.90;;;0.70;;
13483;SDS011;6814;57.786;12.080;2023-04-28T13:02:57;1.33;;;0.60;;
13483;SDS011;6814;57.786;12.080;2023-04-28T13:05:23;3.83;;;1.00;;
13483;SDS011;6814;57.786;12.080;2023-04-28T13:07:50;1.53;;;1.03;;
13483;SDS011;6814;57.786;12.080;2023-04-28T13:10:16;1.43;;;0.60;;
13483;SDS011;6814;57.786;12.080;2023-04-28T13:12:45;3.03;;;0.70;;
13483;SDS011;6814;57.786;12.080;2023-04-28T13:15:21;2.50;;;0.70;;
13483;SDS011;6814;57.786;12.080;2023-04-28T13:17:47;1.50;;;0.97;;
13483;SDS011;6814;57.786;12.080;2023-04-28T13:20:14;2.27;;;1.13;;
13483;SDS011;6814;57.786;12.080;2023-04-28T13:22:40;3.30;;;1.90;;
13483;SDS011;6814;57.786;12.080;2023-04-28T13:25:07;4.73;;;1.77;;
13483;SDS011;6814;57.786;12.080;2023-04-28T13:27:34;1.70;;;1.60;;
13483;SDS011;6814;57.786;12.080;2023-04-28T13:30:00;1.83;;;1.40;;
13483;SDS011;6814;57.786;12.080;2023-04-28T13:32:29;2.57;;;1.30;;
13483;SDS011;6814;57.786;12.080;2023-04-28T13:34:55;2.93;;;1.73;;
13483;SDS011;6814;57.786;12.080;2023-04-28T13:37:22;1.87;;;1.57;;
13483;SDS011;6814;57.786;12.080;2023-04-28T13:39:48;3.37;;;1.23;;
13483;SDS011;6814;57.786;12.080;2023-04-28T13:42:15;1.90;;;1.30;;
13483;SDS011;6814;57.786;12.080;2023-04-28T13:44:41;3.33;;;1.33;;
13483;SDS011;6814;57.786;12.080;2023-04-28T13:47:08;0.97;;;0.83;;
13483;SDS011;6814;57.786;12.080;2023-04-28T13:49:36;0.87;;;0.80;;
13483;SDS011;6814;57.786;12.080;2023-04-28T13:52:03;2.50;;;0.80;;
13483;SDS011;6814;57.786;12.080;2023-04-28T13:54:30;1.13;;;0.70;;
13483;SDS011;6814;57.786;12.080;2023-04-28T13:56:56;1.30;;;0.80;;
13483;SDS011;6814;57.786;12.080;2023-04-28T13:59:23;1.53;;;0.70;;
13483;SDS011;6814;57.786;12.080;2023-04-28T14:01:49;1.17;;;0.80;;
13483;SDS011;6814;57.786;12.080;2023-04-28T14:04:15;1.13;;;0.60;;
13483;SDS011;6814;57.786;12.080;2023-04-28T14:06:43;1.10;;;0.70;;
13483;SDS011;6814;57.786;12.080;2023-04-28T14:09:10;0.80;;;0.67;;
13483;SDS011;6814;57.786;12.080;2023-04-28T14:11:36;1.87;;;1.03;;
13483;SDS011;6814;57.786;12.080;2023-04-28T14:14:03;3.47;;;0.73;;
13483;SDS011;6814;57.786;12.080;2023-04-28T14:16:29;2.13;;;1.00;;
13483;SDS011;6814;57.786;12.080;2023-04-28T14:18:56;1.63;;;0.70;;
13483;SDS011;6814;57.786;12.080;2023-04-28T14:21:23;2.10;;;0.77;;
13483;SDS011;6814;57.786;12.080;2023-04-28T14:23:51;1.87;;;0.80;;
13483;SDS011;6814;57.786;12.080;2023-04-28T14:26:17;2.30;;;0.80;;
13483;SDS011;6814;57.786;12.080;2023-04-28T14:28:45;0.97;;;0.70;;
13483;SDS011;6814;57.786;12.080;2023-04-28T14:31:11;1.60;;;0.80;;
13483;SDS011;6814;57.786;12.080;2023-04-28T14:33:38;1.73;;;0.80;;
13483;SDS011;6814;57.786;12.080;2023-04-28T14:36:04;0.90;;;0.80;;
13483;SDS011;6814;57.786;12.080;2023-04-28T14:38:31;2.77;;;1.00;;
13483;SDS011;6814;57.786;12.080;2023-04-28T14:40:59;2.20;;;1.00;;
13483;SDS011;6814;57.786;12.080;2023-04-28T14:43:25;1.77;;;0.80;;
13483;SDS011;6814;57.786;12.080;2023-04-28T14:45:51;2.73;;;1.33;;
13483;SDS011;6814;57.786;12.080;2023-04-28T14:48:18;3.27;;;1.07;;
13483;SDS011;6814;57.786;12.080;2023-04-28T14:50:45;1.27;;;0.60;;
13483;SDS011;6814;57.786;12.080;2023-04-28T14:53:11;1.03;;;0.80;;
13483;SDS011;6814;57.786;12.080;2023-04-28T14:55:38;0.97;;;0.70;;
13483;SDS011;6814;57.786;12.080;2023-04-28T14:58:06;2.00;;;0.83;;